Time;durP1;ratioP1;P1;durP2;ratioP2;P2;SDS_P1;SDS_P2;PMS_P1;PMS_P2;Temp;Humidity;BMP_temperature;BMP_pressure;BME280_temperature;BME280_humidity;BME280_pressure;Samples;Min_cycle;Max_cycle;Signal;HPM_P1;HPM_P2
2023/05/04 00:02:42;;;;;;;8.20;5.53;;;12.10;64.20;;;;;;5069844;28;20575;-67
2023/05/04 00:05:20;;;;;;;9.07;5.80;;;12.10;64.30;;;;;;5068678;28;20460;-67
2023/05/04 00:07:54;;;;;;;8.17;5.53;;;12.10;64.30;;;;;;5071423;28;20512;-68
2023/05/04 00:10:32;;;;;;;9.77;5.87;;;12.00;64.20;;;;;;5070795;28;20464;-67
2023/05/04 00:13:10;;;;;;;9.20;5.90;;;12.00;64.20;;;;;;5071088;28;20449;-67
2023/05/04 00:15:47;;;;;;;8.73;5.53;;;12.00;64.30;;;;;;5064105;28;20958;-68
2023/05/04 00:18:26;;;;;;;10.17;6.10;;;12.00;64.40;;;;;;5070845;28;20479;-70
2023/05/04 00:20:59;;;;;;;8.90;5.90;;;12.00;64.40;;;;;;5067281;28;20491;-68
2023/05/04 00:23:32;;;;;;;8.80;6.07;;;11.90;64.40;;;;;;5066029;28;20877;-67
2023/05/04 00:26:03;;;;;;;11.37;6.90;;;11.80;64.50;;;;;;5072197;28;20998;-67
2023/05/04 00:28:44;;;;;;;11.83;6.80;;;11.80;64.50;;;;;;5066398;28;20469;-67
2023/05/04 00:31:17;;;;;;;8.50;5.40;;;11.80;64.60;;;;;;5068610;28;20488;-68
2023/05/04 00:34:04;;;;;;;8.03;5.60;;;11.70;64.70;;;;;;5073124;28;20899;-67
2023/05/04 00:36:43;;;;;;;7.57;4.70;;;11.70;64.80;;;;;;5067156;28;20451;-68
2023/05/04 00:39:24;;;;;;;6.47;4.00;;;11.70;64.80;;;;;;5071174;28;20452;-67
2023/05/04 00:41:57;;;;;;;7.70;5.13;;;11.70;64.80;;;;;;5071355;28;20499;-67
2023/05/04 00:44:34;;;;;;;8.17;5.27;;;11.60;64.70;;;;;;5069475;28;20784;-67
2023/05/04 00:47:08;;;;;;;8.13;5.43;;;11.60;64.70;;;;;;5072587;28;21044;-67
2023/05/04 00:49:55;;;;;;;10.50;5.40;;;11.50;64.70;;;;;;5072969;28;20456;-67
2023/05/04 00:52:35;;;;;;;7.80;5.43;;;11.50;64.90;;;;;;5086937;28;20529;-68
2023/05/04 00:55:09;;;;;;;8.27;5.50;;;11.40;64.80;;;;;;5066413;28;20539;-67
2023/05/04 00:57:54;;;;;;;9.47;6.90;;;11.40;64.70;;;;;;5070200;28;20972;-67
2023/05/04 01:00:33;;;;;;;13.47;6.57;;;11.30;64.70;;;;;;5069539;28;22432;-68
2023/05/04 01:03:12;;;;;;;12.50;6.47;;;11.20;64.80;;;;;;5084588;28;20495;-67
2023/05/04 01:05:53;;;;;;;9.00;6.07;;;11.10;65.00;;;;;;5071870;28;20558;-68
2023/05/04 01:08:33;;;;;;;9.33;6.03;;;11.10;65.10;;;;;;5086257;28;20456;-67
2023/05/04 01:11:16;;;;;;;10.93;6.00;;;11.00;65.20;;;;;;5070339;28;20913;-68
2023/05/04 01:13:52;;;;;;;8.17;5.73;;;11.00;65.30;;;;;;5069755;28;20584;-68
2023/05/04 01:16:30;;;;;;;7.87;5.60;;;10.90;65.30;;;;;;5068648;28;20467;-67
2023/05/04 01:19:10;;;;;;;7.60;5.43;;;10.90;65.40;;;;;;5062941;28;20460;-69
2023/05/04 01:21:47;;;;;;;13.30;5.77;;;10.90;65.50;;;;;;5064374;28;20776;-68
2023/05/04 01:24:28;;;;;;;8.93;6.33;;;10.90;65.60;;;;;;5067118;28;20481;-67
2023/05/04 01:27:05;;;;;;;10.27;6.23;;;10.90;65.50;;;;;;5065238;28;20902;-67
2023/05/04 01:29:47;;;;;;;10.83;6.30;;;10.80;65.60;;;;;;5065616;28;20460;-67
2023/05/04 01:32:26;;;;;;;9.70;6.60;;;10.80;65.70;;;;;;5064431;28;20491;-67
2023/05/04 01:35:08;;;;;;;11.60;6.37;;;10.70;65.70;;;;;;5066810;28;20467;-68
2023/05/04 01:37:57;;;;;;;8.93;6.17;;;10.70;65.70;;;;;;5069084;28;20557;-67
2023/05/04 01:40:28;;;;;;;11.70;6.77;;;10.70;65.90;;;;;;5061878;28;20463;-67
2023/05/04 01:43:00;;;;;;;13.13;6.00;;;10.60;65.90;;;;;;5066642;28;20487;-67
2023/05/04 01:45:32;;;;;;;8.57;6.23;;;10.60;66.00;;;;;;5065602;28;20550;-68
2023/05/04 01:48:02;;;;;;;12.67;6.53;;;10.60;66.00;;;;;;5069517;28;20457;-67
2023/05/04 01:50:34;;;;;;;9.57;6.30;;;10.60;66.10;;;;;;5065929;28;20454;-69
2023/05/04 01:53:10;;;;;;;8.43;6.20;;;10.60;66.10;;;;;;5069562;28;20588;-67
2023/05/04 01:55:48;;;;;;;11.67;6.23;;;10.60;66.20;;;;;;5064472;28;20916;-69
2023/05/04 01:58:25;;;;;;;13.77;6.80;;;10.60;66.20;;;;;;5063901;28;20479;-68
2023/05/04 02:01:04;;;;;;;10.03;6.10;;;10.60;66.30;;;;;;5067904;28;20976;-67
2023/05/04 02:03:39;;;;;;;8.87;6.40;;;10.60;66.30;;;;;;5024611;28;1026353;-67
2023/05/04 02:06:15;;;;;;;8.00;5.43;;;10.60;66.50;;;;;;5061630;28;20214;-67
2023/05/04 02:08:53;;;;;;;8.80;5.60;;;10.70;66.50;;;;;;5065761;28;20978;-68
2023/05/04 02:11:33;;;;;;;8.10;5.90;;;10.70;66.50;;;;;;5066655;28;20465;-67
2023/05/04 02:14:04;;;;;;;11.30;6.30;;;10.70;66.20;;;;;;5069604;28;20462;-68
2023/05/04 02:16:40;;;;;;;10.33;5.67;;;10.70;66.30;;;;;;5062671;28;20455;-66
2023/05/04 02:19:13;;;;;;;12.13;6.50;;;10.60;66.20;;;;;;5065091;28;20502;-67
2023/05/04 02:21:43;;;;;;;8.00;6.37;;;10.60;66.20;;;;;;5064616;28;20567;-68
2023/05/04 02:24:41;;;;;;;11.40;6.57;;;10.60;66.30;;;;;;5066280;28;20552;-66
2023/05/04 02:27:09;;;;;;;15.23;6.13;;;10.50;66.30;;;;;;5068593;28;20468;-67
2023/05/04 02:29:51;;;;;;;8.37;6.07;;;10.50;66.40;;;;;;5064154;28;20461;-67
2023/05/04 02:32:25;;;;;;;10.23;6.70;;;10.50;66.30;;;;;;5065765;28;20995;-69
2023/05/04 02:34:59;;;;;;;11.27;7.00;;;10.50;66.40;;;;;;5066832;28;20553;-66
2023/05/04 02:37:32;;;;;;;9.93;6.60;;;10.50;66.40;;;;;;5063489;28;20783;-67
2023/05/04 02:40:12;;;;;;;8.13;6.27;;;10.50;66.40;;;;;;5065901;28;20461;-69
2023/05/04 02:42:56;;;;;;;9.83;6.03;;;10.50;66.50;;;;;;5065154;28;20624;-68
2023/05/04 02:45:32;;;;;;;10.77;6.17;;;10.50;66.50;;;;;;5067353;28;20565;-68
2023/05/04 02:48:03;;;;;;;9.80;6.00;;;10.50;66.40;;;;;;5063246;28;20799;-68
2023/05/04 02:50:37;;;;;;;12.60;6.77;;;10.40;66.30;;;;;;5064287;28;20471;-68
2023/05/04 02:53:15;;;;;;;13.00;7.37;;;10.30;66.20;;;;;;5068888;28;20449;-68
2023/05/04 02:55:50;;;;;;;12.20;7.77;;;10.20;66.20;;;;;;5064224;28;20558;-68
2023/05/04 02:58:23;;;;;;;10.03;7.60;;;10.10;66.30;;;;;;5067413;28;20463;-68
2023/05/04 03:00:57;;;;;;;12.80;7.57;;;10.10;66.40;;;;;;5065739;28;20836;-68
2023/05/04 03:03:29;;;;;;;10.80;7.47;;;10.00;66.50;;;;;;5065857;28;20497;-68
2023/05/04 03:06:15;;;;;;;10.27;6.97;;;10.00;66.50;;;;;;5065458;28;20964;-68
2023/05/04 03:08:48;;;;;;;11.47;7.20;;;10.00;66.60;;;;;;5066024;28;20458;-68
2023/05/04 03:11:37;;;;;;;13.73;8.20;;;10.00;66.60;;;;;;5065202;28;20453;-69
2023/05/04 03:14:11;;;;;;;10.77;7.17;;;9.90;66.80;;;;;;5068023;28;20456;-67
2023/05/04 03:16:43;;;;;;;10.10;6.67;;;9.90;66.70;;;;;;5069305;28;20477;-67
2023/05/04 03:19:28;;;;;;;8.63;6.10;;;9.90;66.70;;;;;;5070633;28;20449;-67
2023/05/04 03:22:07;;;;;;;10.07;6.90;;;9.80;66.80;;;;;;5069093;28;20453;-68
2023/05/04 03:24:38;;;;;;;10.40;7.43;;;9.80;66.80;;;;;;5073735;28;20807;-67
2023/05/04 03:27:18;;;;;;;9.73;7.30;;;9.80;66.80;;;;;;5071345;28;20549;-67
2023/05/04 03:29:51;;;;;;;10.13;7.50;;;9.80;67.00;;;;;;5070179;28;20457;-67
2023/05/04 03:32:25;;;;;;;8.83;6.90;;;9.80;67.00;;;;;;5080493;28;20468;-67
2023/05/04 03:34:56;;;;;;;12.40;6.90;;;9.80;67.00;;;;;;5068748;28;20467;-67
2023/05/04 03:37:26;;;;;;;11.60;6.67;;;9.80;67.00;;;;;;5068290;28;20651;-67
2023/05/04 03:39:56;;;;;;;10.23;6.70;;;9.80;67.10;;;;;;5068775;28;20946;-68
2023/05/04 03:42:36;;;;;;;11.10;6.93;;;9.80;67.10;;;;;;5067058;28;20484;-68
2023/05/04 03:45:10;;;;;;;11.73;6.53;;;9.90;67.20;;;;;;5070242;28;20487;-68
2023/05/04 03:47:41;;;;;;;10.00;6.33;;;9.90;67.20;;;;;;5066711;28;20540;-68
2023/05/04 03:50:21;;;;;;;8.40;6.43;;;9.90;67.10;;;;;;5070556;28;20553;-67
2023/05/04 03:52:56;;;;;;;11.13;6.03;;;9.90;67.00;;;;;;5067547;28;20461;-67
2023/05/04 03:55:37;;;;;;;11.10;6.33;;;9.90;66.90;;;;;;5069157;28;20454;-67
2023/05/04 03:58:10;;;;;;;11.83;6.40;;;9.80;66.90;;;;;;5070700;28;20560;-68
2023/05/04 04:00:41;;;;;;;12.03;7.90;;;9.80;66.80;;;;;;5063187;28;20858;-69
2023/05/04 04:03:18;;;;;;;16.50;10.40;;;9.70;66.80;;;;;;5068755;28;20489;-68
2023/05/04 04:05:52;;;;;;;13.03;8.60;;;9.60;66.90;;;;;;5068764;28;21022;-68
2023/05/04 04:08:29;;;;;;;14.13;9.13;;;9.60;66.90;;;;;;5068948;28;20469;-68
2023/05/04 04:11:08;;;;;;;12.63;7.20;;;9.60;67.10;;;;;;5066709;28;20485;-70
2023/05/04 04:13:45;;;;;;;13.00;7.10;;;9.50;67.00;;;;;;5064204;28;20453;-69
2023/05/04 04:16:24;;;;;;;9.23;7.33;;;9.50;67.20;;;;;;5067577;28;20482;-68
2023/05/04 04:18:58;;;;;;;12.10;9.77;;;9.50;67.20;;;;;;5068212;28;20468;-69
2023/05/04 04:21:44;;;;;;;17.70;9.70;;;9.50;67.20;;;;;;5063383;28;20553;-69
2023/05/04 04:24:21;;;;;;;13.77;9.27;;;9.50;67.20;;;;;;5069821;28;20926;-68
2023/05/04 04:26:56;;;;;;;17.53;8.37;;;9.50;67.20;;;;;;5066602;28;20937;-68
2023/05/04 04:29:34;;;;;;;16.83;11.03;;;9.50;67.30;;;;;;5067260;28;20461;-68
2023/05/04 04:32:09;;;;;;;16.70;8.50;;;9.50;67.30;;;;;;5069248;28;20572;-68
2023/05/04 04:34:43;;;;;;;13.83;8.50;;;9.50;67.50;;;;;;5066469;28;21122;-69
2023/05/04 04:37:18;;;;;;;16.77;8.90;;;9.50;67.50;;;;;;5063979;28;20457;-69
2023/05/04 04:39:49;;;;;;;13.27;8.70;;;9.60;67.70;;;;;;5067828;28;20564;-68
2023/05/04 04:42:29;;;;;;;14.17;9.73;;;9.60;67.70;;;;;;5067055;28;20480;-68
2023/05/04 04:45:10;;;;;;;15.23;10.07;;;9.60;67.80;;;;;;5067655;28;21015;-68
2023/05/04 04:47:50;;;;;;;15.77;9.53;;;9.60;67.90;;;;;;5064822;28;20985;-68
2023/05/04 04:50:29;;;;;;;12.77;9.57;;;9.70;68.10;;;;;;5065378;28;20547;-68
2023/05/04 04:53:07;;;;;;;14.90;9.27;;;9.90;68.40;;;;;;5070314;28;21178;-68
2023/05/04 04:55:39;;;;;;;16.50;10.93;;;10.00;68.50;;;;;;5070549;28;20511;-68
2023/05/04 04:58:18;;;;;;;18.67;12.10;;;10.10;68.60;;;;;;5065859;28;20481;-69
2023/05/04 05:01:01;;;;;;;19.43;12.47;;;10.30;68.70;;;;;;5068880;28;20555;-68
2023/05/04 05:03:36;;;;;;;23.43;12.00;;;10.50;68.80;;;;;;5065707;28;20858;-68
2023/05/04 05:06:11;;;;;;;17.93;11.73;;;10.60;68.90;;;;;;5063907;28;20504;-68
2023/05/04 05:08:52;;;;;;;14.40;10.70;;;10.80;69.00;;;;;;5067906;28;20464;-68
2023/05/04 05:11:25;;;;;;;14.93;10.93;;;11.10;69.00;;;;;;5063258;28;21067;-69
2023/05/04 05:13:59;;;;;;;18.77;10.93;;;11.40;68.60;;;;;;5065894;28;21216;-69
2023/05/04 05:16:39;;;;;;;16.03;9.53;;;11.80;68.40;;;;;;5070337;28;20465;-69
2023/05/04 05:19:15;;;;;;;18.87;10.00;;;12.30;67.90;;;;;;5070257;28;20455;-68
2023/05/04 05:21:48;;;;;;;12.77;9.53;;;12.70;67.40;;;;;;5066619;28;20455;-69
2023/05/04 05:24:27;;;;;;;14.33;9.40;;;13.00;67.00;;;;;;5064029;28;20470;-68
2023/05/04 05:27:01;;;;;;;12.90;8.83;;;13.20;66.70;;;;;;5065559;28;20815;-68
2023/05/04 05:29:36;;;;;;;15.57;9.10;;;13.40;66.90;;;;;;5070163;28;20456;-68
2023/05/04 05:32:15;;;;;;;13.17;8.80;;;13.70;66.70;;;;;;5067969;28;20475;-68
2023/05/04 05:34:50;;;;;;;14.40;8.80;;;13.80;66.30;;;;;;5066997;28;20528;-69
2023/05/04 05:37:27;;;;;;;12.20;8.57;;;14.00;66.60;;;;;;5065747;28;20955;-68
2023/05/04 05:40:04;;;;;;;18.87;8.10;;;14.40;66.50;;;;;;5065219;28;20460;-68
2023/05/04 05:42:38;;;;;;;12.40;8.00;;;14.90;66.30;;;;;;5065171;28;20465;-67
2023/05/04 05:45:17;;;;;;;11.80;7.43;;;15.20;65.70;;;;;;5067492;28;20618;-67
2023/05/04 05:47:56;;;;;;;18.97;9.43;;;15.60;65.50;;;;;;5066882;28;20448;-67
2023/05/04 05:50:33;;;;;;;13.30;8.13;;;16.10;64.60;;;;;;5069627;28;20450;-68
2023/05/04 05:53:13;;;;;;;21.43;7.47;;;16.30;64.20;;;;;;5067915;28;20479;-68
2023/05/04 05:55:43;;;;;;;11.97;8.03;;;16.60;63.60;;;;;;5068800;28;20466;-68
2023/05/04 05:58:24;;;;;;;13.53;7.90;;;16.80;62.90;;;;;;5066096;28;20464;-68
2023/05/04 06:00:58;;;;;;;16.73;7.80;;;17.10;62.40;;;;;;5052838;28;21105;-67
2023/05/04 06:03:39;;;;;;;13.57;8.10;;;17.00;61.40;;;;;;5064811;28;20482;-68
2023/05/04 06:06:14;;;;;;;12.37;8.33;;;16.60;60.80;;;;;;5063157;28;20822;-68
2023/05/04 06:08:45;;;;;;;18.60;10.50;;;15.80;60.80;;;;;;5066198;28;20929;-67
2023/05/04 06:11:18;;;;;;;15.27;9.57;;;15.00;61.20;;;;;;5070174;28;20454;-69
2023/05/04 06:13:47;;;;;;;13.13;9.10;;;14.50;61.80;;;;;;5064259;28;20504;-68
2023/05/04 06:16:21;;;;;;;14.33;9.40;;;14.00;62.10;;;;;;5069281;28;20457;-67
2023/05/04 06:18:59;;;;;;;12.67;8.70;;;13.60;62.60;;;;;;5065167;28;20464;-69
2023/05/04 06:21:29;;;;;;;15.73;8.87;;;13.30;63.20;;;;;;5067755;28;20446;-68
2023/05/04 06:24:09;;;;;;;13.93;8.10;;;13.10;63.60;;;;;;5066272;28;20475;-68
2023/05/04 06:26:41;;;;;;;13.60;8.73;;;12.90;63.90;;;;;;5068058;28;20488;-68
2023/05/04 06:29:20;;;;;;;13.30;8.53;;;12.80;64.30;;;;;;5069781;28;20809;-70
2023/05/04 06:31:53;;;;;;;14.53;9.67;;;12.70;64.60;;;;;;5066187;28;20484;-69
2023/05/04 06:34:26;;;;;;;33.37;16.93;;;12.60;64.80;;;;;;5068922;28;20461;-68
2023/05/04 06:36:57;;;;;;;19.83;10.53;;;12.60;65.10;;;;;;5064943;28;20783;-68
2023/05/04 06:39:28;;;;;;;13.33;8.60;;;12.60;65.40;;;;;;5067522;28;20970;-67
2023/05/04 06:42:09;;;;;;;18.13;9.50;;;12.50;65.60;;;;;;5067072;28;20450;-67
2023/05/04 06:44:44;;;;;;;13.47;8.67;;;12.50;65.80;;;;;;5070135;28;20471;-67
2023/05/04 06:47:17;;;;;;;16.23;9.50;;;12.60;65.90;;;;;;5067943;28;20543;-67
2023/05/04 06:49:58;;;;;;;11.70;8.80;;;12.70;66.10;;;;;;5071939;28;20546;-67
2023/05/04 06:52:32;;;;;;;23.43;11.67;;;12.70;66.20;;;;;;5072319;28;20446;-68
2023/05/04 06:55:06;;;;;;;13.83;9.33;;;12.70;66.30;;;;;;5070067;28;20536;-68
2023/05/04 06:57:51;;;;;;;15.77;9.53;;;12.80;66.40;;;;;;5072570;28;20970;-67
2023/05/04 07:00:32;;;;;;;15.50;10.23;;;12.80;66.50;;;;;;5070380;28;20562;-68
2023/05/04 07:03:07;;;;;;;14.40;9.70;;;12.90;66.60;;;;;;5072168;28;20457;-68
2023/05/04 07:05:44;;;;;;;14.17;9.40;;;13.00;66.60;;;;;;5068523;28;21107;-67
2023/05/04 07:08:18;;;;;;;17.63;10.63;;;13.10;66.80;;;;;;5070652;28;20994;-68
2023/05/04 07:10:53;;;;;;;16.37;9.60;;;13.20;66.80;;;;;;5072368;28;20540;-68
2023/05/04 07:13:27;;;;;;;30.47;10.87;;;13.20;66.80;;;;;;5070624;28;20472;-67
2023/05/04 07:16:02;;;;;;;30.97;16.67;;;13.30;66.90;;;;;;5070168;28;20460;-67
2023/05/04 07:18:34;;;;;;;14.47;9.10;;;13.40;66.90;;;;;;5072030;28;20453;-68
2023/05/04 07:21:16;;;;;;;18.73;12.87;;;13.50;67.00;;;;;;5071103;28;20477;-68
2023/05/04 07:23:59;;;;;;;18.90;12.30;;;13.60;67.00;;;;;;5069799;28;20803;-68
2023/05/04 07:26:33;;;;;;;17.03;10.70;;;13.60;67.00;;;;;;5068572;28;20489;-68
2023/05/04 07:29:06;;;;;;;36.73;16.20;;;13.70;67.00;;;;;;5073164;28;20450;-67
2023/05/04 07:31:44;;;;;;;15.40;9.90;;;13.80;67.00;;;;;;5071427;28;20509;-68
2023/05/04 07:34:22;;;;;;;17.43;10.30;;;13.80;67.00;;;;;;5071580;28;20521;-68
2023/05/04 07:37:21;;;;;;;16.80;11.23;;;13.90;67.10;;;;;;5072295;28;20446;-67
2023/05/04 07:39:54;;;;;;;15.03;10.93;;;14.00;67.10;;;;;;5074492;28;21104;-68
2023/05/04 07:42:26;;;;;;;14.70;10.50;;;14.10;67.10;;;;;;5071832;28;20527;-68
2023/05/04 07:44:59;;;;;;;17.57;11.17;;;14.20;67.20;;;;;;5072068;28;20771;-68
2023/05/04 07:47:39;;;;;;;15.60;10.63;;;14.30;67.10;;;;;;5071302;28;20920;-67
2023/05/04 07:50:14;;;;;;;13.40;9.40;;;14.40;67.10;;;;;;5071670;28;21004;-67
2023/05/04 07:53:02;;;;;;;19.70;9.90;;;14.50;66.80;;;;;;5070675;28;20555;-67
2023/05/04 07:55:37;;;;;;;14.43;9.47;;;14.60;66.80;;;;;;5071679;28;20442;-68
2023/05/04 07:58:18;;;;;;;17.60;10.47;;;14.60;66.80;;;;;;5073099;28;20459;-68
2023/05/04 08:00:50;;;;;;;18.87;11.10;;;14.70;66.70;;;;;;5067670;28;21089;-67
2023/05/04 08:03:29;;;;;;;17.50;11.83;;;14.80;66.80;;;;;;5071855;28;20470;-68
2023/05/04 08:05:58;;;;;;;14.07;9.57;;;14.80;66.70;;;;;;5071395;28;20475;-67
2023/05/04 08:08:39;;;;;;;17.70;11.30;;;14.90;66.80;;;;;;5089272;28;20935;-67
2023/05/04 08:11:13;;;;;;;14.73;10.07;;;15.00;66.80;;;;;;5072330;28;20549;-68
2023/05/04 08:13:51;;;;;;;19.10;11.37;;;15.10;66.70;;;;;;5070674;28;20466;-67
2023/05/04 08:16:32;;;;;;;17.60;10.60;;;15.10;66.70;;;;;;5069639;28;20445;-67
2023/05/04 08:19:11;;;;;;;17.37;10.73;;;15.20;66.50;;;;;;5071347;28;20938;-68
2023/05/04 08:21:42;;;;;;;14.83;10.20;;;15.30;66.50;;;;;;5069700;28;20459;-68
2023/05/04 08:24:28;;;;;;;15.07;10.70;;;15.30;66.50;;;;;;5068982;28;20506;-67
2023/05/04 08:27:02;;;;;;;18.90;11.07;;;15.40;66.50;;;;;;5070424;28;20984;-67
2023/05/04 08:29:38;;;;;;;14.07;10.63;;;15.50;66.50;;;;;;5069491;28;20936;-67
2023/05/04 08:32:12;;;;;;;18.20;10.30;;;15.50;66.50;;;;;;5070207;28;21024;-67
2023/05/04 08:34:43;;;;;;;18.80;11.30;;;15.50;66.50;;;;;;5060950;28;20487;-67
2023/05/04 08:37:15;;;;;;;18.67;11.67;;;15.60;66.50;;;;;;5070603;28;20445;-65
2023/05/04 08:39:55;;;;;;;18.60;11.43;;;15.70;66.30;;;;;;5070558;28;21164;-67
2023/05/04 08:42:33;;;;;;;15.70;11.37;;;15.70;66.20;;;;;;5067837;28;20456;-65
2023/05/04 08:45:01;;;;;;;20.10;11.07;;;15.70;66.20;;;;;;5069625;28;20469;-66
2023/05/04 08:47:42;;;;;;;16.00;11.03;;;15.80;66.20;;;;;;5066738;28;20495;-67
2023/05/04 08:50:14;;;;;;;18.07;11.70;;;15.80;66.10;;;;;;5068039;28;20461;-66
2023/05/04 08:53:02;;;;;;;19.20;11.60;;;15.90;66.10;;;;;;5068973;28;20869;-68
2023/05/04 08:55:50;;;;;;;15.57;10.60;;;15.90;66.10;;;;;;5068194;28;20763;-67
2023/05/04 08:58:24;;;;;;;16.80;9.87;;;16.00;66.00;;;;;;5067084;28;20564;-67
2023/05/04 09:00:56;;;;;;;16.77;11.00;;;16.10;66.10;;;;;;5071773;28;20489;-67
2023/05/04 09:03:30;;;;;;;15.90;10.70;;;16.10;66.00;;;;;;5069387;28;20452;-66
2023/05/04 09:06:00;;;;;;;14.10;9.63;;;16.20;65.90;;;;;;5070503;28;20471;-66
2023/05/04 09:08:35;;;;;;;16.33;9.63;;;16.30;65.90;;;;;;5070429;28;20841;-66
2023/05/04 09:11:15;;;;;;;13.97;10.20;;;16.30;65.80;;;;;;5067616;28;20459;-67
2023/05/04 09:13:47;;;;;;;17.00;10.13;;;16.40;65.80;;;;;;5068014;28;20485;-66
2023/05/04 09:16:27;;;;;;;13.70;10.70;;;16.50;65.70;;;;;;5071196;28;20498;-65
2023/05/04 09:18:57;;;;;;;16.13;10.93;;;16.60;65.40;;;;;;5072126;28;20536;-67
2023/05/04 09:21:42;;;;;;;13.43;10.50;;;16.70;65.30;;;;;;5067983;28;20452;-66
2023/05/04 09:24:16;;;;;;;15.73;9.90;;;16.70;65.30;;;;;;5070149;28;20876;-67
2023/05/04 09:26:51;;;;;;;15.67;10.80;;;16.80;65.30;;;;;;5066954;28;20997;-65
2023/05/04 09:29:36;;;;;;;16.00;10.97;;;16.90;65.20;;;;;;5070079;28;20468;-67
2023/05/04 09:32:14;;;;;;;13.67;9.30;;;17.00;64.90;;;;;;5063939;28;20511;-66
2023/05/04 09:34:54;;;;;;;14.33;10.10;;;17.00;64.80;;;;;;5081325;28;20511;-66
2023/05/04 09:37:27;;;;;;;15.70;10.43;;;17.10;64.70;;;;;;5067302;28;20477;-67
2023/05/04 09:40:00;;;;;;;11.03;8.23;;;17.20;64.70;;;;;;5068744;28;20486;-66
2023/05/04 09:42:45;;;;;;;14.33;10.57;;;17.20;64.60;;;;;;5066389;28;20458;-67
2023/05/04 09:45:26;;;;;;;16.40;9.53;;;17.30;64.60;;;;;;5071864;28;20511;-66
2023/05/04 09:47:58;;;;;;;13.57;9.50;;;17.30;64.50;;;;;;5072424;28;20481;-66
2023/05/04 09:50:38;;;;;;;18.50;10.90;;;17.30;64.50;;;;;;5069711;28;20457;-66
2023/05/04 09:53:16;;;;;;;16.27;10.00;;;17.40;64.40;;;;;;5066603;28;21005;-65
2023/05/04 09:56:02;;;;;;;16.93;10.57;;;17.50;64.30;;;;;;5070426;28;20783;-65
2023/05/04 09:58:50;;;;;;;15.70;10.47;;;17.60;64.20;;;;;;5069532;28;20534;-66
2023/05/04 10:01:20;;;;;;;14.33;9.50;;;17.60;63.90;;;;;;5069026;28;21075;-66
2023/05/04 10:03:59;;;;;;;14.10;9.97;;;17.70;63.90;;;;;;5071262;28;20935;-65
2023/05/04 10:06:33;;;;;;;14.40;8.90;;;17.70;63.70;;;;;;5069506;28;20454;-65
2023/05/04 10:09:07;;;;;;;13.57;9.83;;;17.80;63.60;;;;;;5069339;28;20454;-65
2023/05/04 10:11:39;;;;;;;13.00;9.60;;;17.90;63.20;;;;;;5063267;28;20463;-65
2023/05/04 10:14:26;;;;;;;13.50;9.70;;;17.90;63.20;;;;;;5068155;28;20945;-65
2023/05/04 10:17:06;;;;;;;14.73;9.67;;;18.00;63.00;;;;;;5070973;28;20451;-65
2023/05/04 10:20:19;;;;;;;17.50;8.53;;;18.10;62.70;;;;;;5066974;28;20447;-65
2023/05/04 10:23:16;;;;;;;17.60;9.93;;;18.10;62.40;;;;;;5067020;28;20447;-65
2023/05/04 10:26:39;;;;;;;10.73;8.17;;;18.20;62.00;;;;;;5070216;28;20575;-65
2023/05/04 10:29:27;;;;;;;12.60;8.10;;;18.30;61.70;;;;;;5070036;28;20461;-67
2023/05/04 10:31:58;;;;;;;13.20;9.20;;;18.40;61.70;;;;;;5069110;28;20479;-65
2023/05/04 10:34:29;;;;;;;14.87;10.60;;;18.40;61.90;;;;;;5070176;28;20452;-65
2023/05/04 10:37:23;;;;;;;17.30;9.07;;;18.50;61.80;;;;;;5067852;28;20456;-65
2023/05/04 10:39:56;;;;;;;13.13;9.60;;;18.50;61.70;;;;;;5067142;28;20459;-66
2023/05/04 10:42:40;;;;;;;13.17;8.50;;;18.50;61.40;;;;;;5065925;28;20459;-66
2023/05/04 10:45:36;;;;;;;14.20;8.90;;;18.50;61.50;;;;;;5067252;28;20976;-66
2023/05/04 10:48:11;;;;;;;14.00;8.70;;;18.60;61.30;;;;;;5065342;28;20484;-67
2023/05/04 10:50:47;;;;;;;13.57;8.97;;;18.60;61.40;;;;;;5067345;28;20455;-65
2023/05/04 10:53:33;;;;;;;14.73;9.60;;;18.70;61.10;;;;;;5065713;28;20974;-66
2023/05/04 10:56:21;;;;;;;13.70;9.43;;;18.70;61.10;;;;;;5068119;28;20459;-66
2023/05/04 10:59:13;;;;;;;10.57;7.60;;;18.70;61.00;;;;;;5066626;28;20518;-66
2023/05/04 11:01:49;;;;;;;13.20;8.37;;;18.80;61.10;;;;;;5067198;28;20475;-66
2023/05/04 11:04:23;;;;;;;14.13;8.90;;;18.80;60.90;;;;;;5066732;28;20459;-66
2023/05/04 11:07:00;;;;;;;12.93;8.93;;;18.90;60.70;;;;;;5067852;28;20468;-66
2023/05/04 11:09:39;;;;;;;12.80;9.10;;;18.90;60.60;;;;;;5068013;28;20467;-66
2023/05/04 11:12:24;;;;;;;13.27;8.67;;;19.00;60.50;;;;;;5068857;28;20475;-66
2023/05/04 11:15:17;;;;;;;13.90;8.07;;;19.00;60.30;;;;;;5069516;28;21273;-66
2023/05/04 11:18:01;;;;;;;14.40;8.47;;;19.00;60.30;;;;;;5066852;28;20449;-66
2023/05/04 11:20:32;;;;;;;12.10;8.13;;;19.10;60.10;;;;;;5066763;28;20455;-66
2023/05/04 11:23:09;;;;;;;10.53;7.00;;;19.20;60.00;;;;;;5065437;28;20469;-66
2023/05/04 11:25:40;;;;;;;17.40;7.10;;;19.20;59.90;;;;;;5067698;28;20464;-66
2023/05/04 11:28:15;;;;;;;11.50;8.00;;;19.20;59.80;;;;;;5066376;28;20508;-66
2023/05/04 11:30:46;;;;;;;13.87;8.90;;;19.20;59.80;;;;;;5067075;28;20521;-66
2023/05/04 11:33:33;;;;;;;14.43;8.43;;;19.30;59.40;;;;;;5067645;28;20456;-66
2023/05/04 11:36:04;;;;;;;16.10;8.23;;;19.30;59.30;;;;;;5065763;28;20452;-66
2023/05/04 11:38:41;;;;;;;12.87;7.77;;;19.30;59.30;;;;;;5071330;28;20527;-66
2023/05/04 11:41:11;;;;;;;12.80;7.57;;;19.30;59.30;;;;;;5071850;28;20461;-66
2023/05/04 11:43:45;;;;;;;20.90;8.20;;;19.30;59.10;;;;;;5070373;28;20814;-66
2023/05/04 11:46:21;;;;;;;11.47;7.90;;;19.40;59.00;;;;;;5069824;28;20472;-66
2023/05/04 11:49:08;;;;;;;15.43;7.07;;;19.40;58.80;;;;;;5068876;28;20486;-66
2023/05/04 11:51:39;;;;;;;10.40;7.10;;;19.50;58.70;;;;;;5069687;28;20459;-66
2023/05/04 11:54:27;;;;;;;12.93;7.37;;;19.50;58.70;;;;;;5071359;28;20929;-66
2023/05/04 11:57:03;;;;;;;12.40;7.30;;;19.60;58.30;;;;;;5071043;28;20464;-66
2023/05/04 11:59:38;;;;;;;13.53;6.30;;;19.70;58.20;;;;;;5070039;28;20765;-66
2023/05/04 12:02:17;;;;;;;13.23;6.50;;;19.70;58.30;;;;;;5068935;28;20471;-66
2023/05/04 12:04:58;;;;;;;9.90;6.90;;;19.70;58.30;;;;;;5069495;28;20456;-67
2023/05/04 12:07:42;;;;;;;11.97;7.43;;;19.70;58.10;;;;;;5068421;28;21036;-66
2023/05/04 12:10:27;;;;;;;15.50;7.10;;;19.70;58.20;;;;;;5068278;28;20504;-66
2023/05/04 12:13:07;;;;;;;15.17;6.80;;;19.90;57.90;;;;;;5070016;28;20904;-66
2023/05/04 12:15:39;;;;;;;11.83;6.33;;;19.90;57.90;;;;;;5069489;28;20473;-66
2023/05/04 12:18:28;;;;;;;11.03;6.70;;;19.90;57.70;;;;;;5066621;28;20453;-66
2023/05/04 12:21:20;;;;;;;9.70;5.97;;;20.00;57.30;;;;;;5068225;28;20460;-66
2023/05/04 12:23:56;;;;;;;9.27;5.97;;;20.00;57.30;;;;;;5070814;28;20453;-66
2023/05/04 12:26:36;;;;;;;11.10;6.00;;;20.10;57.20;;;;;;5068460;28;20445;-66
2023/05/04 12:29:11;;;;;;;11.40;7.10;;;20.10;57.10;;;;;;5067605;28;20496;-66
2023/05/04 12:31:45;;;;;;;11.40;6.73;;;20.20;57.10;;;;;;5063567;28;20505;-66
2023/05/04 12:34:17;;;;;;;10.83;6.77;;;20.20;56.90;;;;;;5066335;28;20552;-66
2023/05/04 12:37:05;;;;;;;9.80;6.90;;;20.20;56.70;;;;;;5068604;28;20449;-66
2023/05/04 12:42:30;;;;;;;12.03;6.63;;;20.30;56.40;;;;;;5068594;28;20449;-66
2023/05/04 12:45:05;;;;;;;13.77;6.50;;;20.40;56.30;;;;;;5068345;28;20464;-66
2023/05/04 12:47:44;;;;;;;9.20;5.67;;;20.40;56.00;;;;;;5069808;28;20461;-66
2023/05/04 12:50:25;;;;;;;12.77;6.30;;;20.40;55.90;;;;;;5070109;28;20442;-66
2023/05/04 12:53:13;;;;;;;9.97;6.00;;;20.40;55.80;;;;;;5069680;28;20448;-66
2023/05/04 12:55:46;;;;;;;12.23;5.27;;;20.40;55.90;;;;;;5069682;28;20456;-66
2023/05/04 12:58:26;;;;;;;9.50;5.50;;;20.50;55.80;;;;;;5071795;28;20457;-66
2023/05/04 13:01:07;;;;;;;16.80;5.97;;;20.60;55.50;;;;;;5064941;28;20476;-66
2023/05/04 13:03:40;;;;;;;11.93;5.33;;;20.60;55.20;;;;;;5067488;28;20513;-66
2023/05/04 13:06:14;;;;;;;11.67;5.00;;;20.70;55.10;;;;;;5066159;28;20453;-66
2023/05/04 13:08:48;;;;;;;9.13;5.40;;;20.70;55.00;;;;;;5064877;28;20485;-66
2023/05/04 13:11:21;;;;;;;7.80;4.87;;;20.80;54.40;;;;;;5068665;28;20814;-67
2023/05/04 13:13:56;;;;;;;11.20;5.57;;;20.80;54.30;;;;;;5068650;28;20531;-66
2023/05/04 13:16:35;;;;;;;10.30;5.17;;;20.90;54.00;;;;;;5070737;28;20937;-66
2023/05/04 13:19:06;;;;;;;11.30;5.93;;;20.90;53.80;;;;;;5063168;28;20442;-66
2023/05/04 13:21:52;;;;;;;11.13;5.17;;;20.90;53.90;;;;;;5064035;28;20449;-66
2023/05/04 13:24:34;;;;;;;13.60;5.00;;;20.90;53.90;;;;;;5069590;28;20758;-66
2023/05/04 13:27:13;;;;;;;11.63;4.60;;;20.90;53.70;;;;;;5070263;28;20507;-66
2023/05/04 13:29:47;;;;;;;13.80;4.93;;;20.90;53.80;;;;;;5065079;28;20852;-66
2023/05/04 13:32:24;;;;;;;8.70;5.20;;;20.90;53.70;;;;;;5066995;28;20470;-66
2023/05/04 13:35:00;;;;;;;7.70;5.00;;;20.90;53.60;;;;;;5065404;28;20465;-66